Time;durP1;ratioP1;P1;durP2;ratioP2;P2;SDS_P1;SDS_P2;PMS_P1;PMS_P2;Temp;Humidity;BMP_temperature;BMP_pressure;BME280_temperature;BME280_humidity;BME280_pressure;Samples;Min_cycle;Max_cycle;Signal;HPM_P1;HPM_P2
2021/01/12 00:00:29;;;;;;;3.65;1.73;;;3.70;99.90;;;;;;4960643;28;20051;-67
2021/01/12 00:02:57;;;;;;;3.42;1.20;;;3.70;99.90;;;;;;4962554;28;20775;-68
2021/01/12 00:05:24;;;;;;;1.92;1.27;;;3.80;99.90;;;;;;4961789;28;20463;-67
2021/01/12 00:07:51;;;;;;;4.43;2.10;;;3.70;99.90;;;;;;4961208;28;20042;-67
2021/01/12 00:10:20;;;;;;;2.47;1.35;;;3.70;99.90;;;;;;4962343;28;20042;-68
2021/01/12 00:12:47;;;;;;;5.72;1.40;;;3.70;99.90;;;;;;4962095;28;20047;-68
2021/01/12 00:15:14;;;;;;;7.45;2.25;;;3.70;99.90;;;;;;4960567;28;20042;-66
2021/01/12 00:17:41;;;;;;;6.45;1.65;;;3.70;99.90;;;;;;4961456;28;20479;-67
2021/01/12 00:20:10;;;;;;;3.75;1.80;;;3.70;99.90;;;;;;4962646;28;20053;-66
2021/01/12 00:22:37;;;;;;;8.02;1.77;;;3.70;99.90;;;;;;4959087;28;20117;-68
2021/01/12 00:25:06;;;;;;;2.33;1.63;;;3.70;99.90;;;;;;4963762;28;20051;-68
2021/01/12 00:27:48;;;;;;;3.53;1.20;;;3.70;99.90;;;;;;4964743;28;20058;-68
2021/01/12 00:30:15;;;;;;;6.13;1.65;;;3.70;99.90;;;;;;4963060;28;20042;-66
2021/01/12 00:32:42;;;;;;;3.17;1.27;;;3.70;99.90;;;;;;4962939;28;20094;-67
2021/01/12 00:35:08;;;;;;;11.88;1.58;;;3.70;99.90;;;;;;4963779;28;20737;-66
2021/01/12 00:37:36;;;;;;;2.90;1.20;;;3.70;99.90;;;;;;4963768;28;20398;-67
2021/01/12 00:40:03;;;;;;;4.07;1.52;;;3.70;99.90;;;;;;4967944;28;20039;-67
2021/01/12 00:42:29;;;;;;;2.92;1.58;;;3.70;99.90;;;;;;4963246;28;20043;-68
2021/01/12 00:44:56;;;;;;;2.85;1.67;;;3.70;99.90;;;;;;4965568;28;20042;-67
2021/01/12 00:47:25;;;;;;;2.25;1.38;;;3.60;99.90;;;;;;4962121;28;20074;-67
2021/01/12 00:49:52;;;;;;;2.75;1.15;;;3.70;99.90;;;;;;4962812;28;20141;-68
2021/01/12 00:52:19;;;;;;;1.98;1.20;;;3.70;99.90;;;;;;4961365;28;20055;-67
2021/01/12 00:54:45;;;;;;;3.05;1.20;;;3.70;99.90;;;;;;4961930;28;20057;-67
2021/01/12 00:57:12;;;;;;;2.45;2.25;;;3.70;99.90;;;;;;4960444;28;20114;-67
2021/01/12 00:59:38;;;;;;;5.65;1.67;;;3.60;99.90;;;;;;4962817;28;20039;-66
2021/01/12 01:02:05;;;;;;;4.38;1.27;;;3.60;99.90;;;;;;4962251;28;20066;-68
2021/01/12 01:04:33;;;;;;;9.45;1.38;;;3.60;99.90;;;;;;4962007;28;20122;-68
2021/01/12 01:06:59;;;;;;;3.88;1.42;;;3.60;99.90;;;;;;4962364;28;20074;-69
2021/01/12 01:09:25;;;;;;;5.15;0.90;;;3.60;99.90;;;;;;4961900;28;20419;-67
2021/01/12 01:11:52;;;;;;;3.42;0.90;;;3.60;99.90;;;;;;4959211;28;20086;-70
2021/01/12 01:14:20;;;;;;;3.15;0.90;;;3.60;99.90;;;;;;4945643;28;20162;-68
2021/01/12 01:16:47;;;;;;;6.75;1.40;;;3.60;99.90;;;;;;4962623;28;20808;-70
2021/01/12 01:19:14;;;;;;;2.55;1.13;;;3.60;99.90;;;;;;4960841;28;20109;-69
2021/01/12 01:21:41;;;;;;;1.27;0.85;;;3.60;99.90;;;;;;4963134;28;20058;-67
2021/01/12 01:24:08;;;;;;;2.47;0.90;;;3.50;99.90;;;;;;4962371;28;20152;-67
2021/01/12 01:26:35;;;;;;;6.50;0.85;;;3.50;99.90;;;;;;4962794;28;20042;-69
2021/01/12 01:29:02;;;;;;;2.38;0.90;;;3.50;99.90;;;;;;4964437;28;20046;-70
2021/01/12 01:31:39;;;;;;;4.15;1.23;;;3.50;99.90;;;;;;4961163;28;20051;-67
2021/01/12 01:34:06;;;;;;;2.38;0.80;;;3.50;99.90;;;;;;4962779;28;20422;-66
2021/01/12 01:36:33;;;;;;;6.60;0.95;;;3.50;99.90;;;;;;4963960;28;20507;-66
2021/01/12 01:38:59;;;;;;;1.40;0.90;;;3.50;99.90;;;;;;4965919;28;20070;-66
2021/01/12 01:41:26;;;;;;;1.23;0.75;;;3.50;99.90;;;;;;4964629;28;20513;-67
2021/01/12 01:43:52;;;;;;;3.83;0.90;;;3.50;99.90;;;;;;4966838;28;20451;-66
2021/01/12 01:46:20;;;;;;;8.93;2.38;;;3.50;99.90;;;;;;4966631;28;20086;-68
2021/01/12 01:48:51;;;;;;;2.20;0.60;;;3.50;99.90;;;;;;4965168;28;20541;-67
2021/01/12 01:51:18;;;;;;;2.05;0.60;;;3.50;99.90;;;;;;4965519;28;20043;-66
2021/01/12 01:53:46;;;;;;;3.55;0.60;;;3.40;99.90;;;;;;4961602;28;20129;-66
2021/01/12 01:56:13;;;;;;;3.22;0.73;;;3.50;99.90;;;;;;4966520;28;20096;-66
2021/01/12 01:58:40;;;;;;;1.70;0.65;;;3.40;99.90;;;;;;4966529;28;20054;-66
2021/01/12 02:01:08;;;;;;;10.45;1.60;;;3.50;99.90;;;;;;4965818;28;20049;-66
2021/01/12 02:04:10;;;;;;;6.05;1.30;;;3.50;99.90;;;;;;4962941;28;20057;-67
2021/01/12 02:06:38;;;;;;;6.60;1.25;;;3.50;99.90;;;;;;4959153;28;20097;-70
2021/01/12 02:09:16;;;;;;;3.20;0.70;;;3.50;99.90;;;;;;4964757;28;20407;-67
2021/01/12 02:11:47;;;;;;;4.57;1.00;;;3.40;99.90;;;;;;4961373;28;20054;-69
2021/01/12 02:14:19;;;;;;;1.15;0.65;;;3.50;99.90;;;;;;4965878;28;20153;-66
2021/01/12 02:16:46;;;;;;;0.52;0.50;;;3.50;99.90;;;;;;4962890;28;20047;-67
2021/01/12 02:19:26;;;;;;;1.23;0.50;;;3.40;99.90;;;;;;4963849;28;20887;-66
2021/01/12 02:22:02;;;;;;;1.08;0.50;;;3.40;99.90;;;;;;4965793;28;20046;-66
2021/01/12 02:24:34;;;;;;;3.38;1.67;;;3.40;99.90;;;;;;4964367;28;20035;-66
2021/01/12 02:27:03;;;;;;;3.38;1.02;;;3.50;99.90;;;;;;4965709;28;20051;-67
2021/01/12 02:29:30;;;;;;;3.85;1.10;;;3.50;99.90;;;;;;4963622;28;20059;-68
2021/01/12 02:31:57;;;;;;;0.95;0.70;;;3.50;99.90;;;;;;4964429;28;20831;-69
2021/01/12 02:34:26;;;;;;;3.17;1.15;;;3.50;99.90;;;;;;4962255;28;20058;-67
2021/01/12 02:36:54;;;;;;;4.13;1.25;;;3.50;99.90;;;;;;4960797;28;20058;-68
2021/01/12 02:39:21;;;;;;;5.65;1.85;;;3.50;99.90;;;;;;4959712;28;20097;-68
2021/01/12 02:41:47;;;;;;;3.78;1.80;;;3.50;99.90;;;;;;4965866;28;20054;-66
2021/01/12 02:44:22;;;;;;;4.63;1.48;;;3.60;99.90;;;;;;4965012;28;20145;-69
2021/01/12 02:46:50;;;;;;;2.53;1.25;;;3.60;99.90;;;;;;4965093;28;20054;-67
2021/01/12 02:49:16;;;;;;;6.82;1.85;;;3.60;99.90;;;;;;4962920;28;20832;-67
2021/01/12 02:51:43;;;;;;;2.72;1.90;;;3.60;99.90;;;;;;4966100;28;20403;-68
2021/01/12 02:54:10;;;;;;;3.00;1.67;;;3.60;99.90;;;;;;4970352;28;20499;-67
2021/01/12 02:56:36;;;;;;;7.65;2.05;;;3.60;99.90;;;;;;4964982;28;20053;-68
2021/01/12 02:59:03;;;;;;;4.13;2.20;;;3.70;99.90;;;;;;4965145;28;20077;-69
2021/01/12 03:01:30;;;;;;;4.97;1.73;;;3.70;99.90;;;;;;4960256;28;23422;-66
2021/01/12 03:03:56;;;;;;;6.30;1.95;;;3.80;99.90;;;;;;4965113;28;20089;-68
2021/01/12 03:06:23;;;;;;;6.32;3.05;;;3.80;99.90;;;;;;4962897;28;20058;-71
2021/01/12 03:08:50;;;;;;;2.22;1.60;;;3.80;99.90;;;;;;4963825;28;20695;-67
2021/01/12 03:11:16;;;;;;;3.70;2.53;;;3.80;99.90;;;;;;4963020;28;20053;-68
2021/01/12 03:13:43;;;;;;;2.88;1.88;;;3.80;99.90;;;;;;4961890;28;20074;-67
2021/01/12 03:16:09;;;;;;;2.75;2.13;;;3.80;99.90;;;;;;4962059;28;20365;-66
2021/01/12 03:18:36;;;;;;;6.65;2.15;;;3.70;99.90;;;;;;4963986;28;20054;-67
2021/01/12 03:21:03;;;;;;;6.05;2.92;;;3.70;99.90;;;;;;4965340;28;20050;-68
2021/01/12 03:23:30;;;;;;;3.55;2.10;;;3.80;99.90;;;;;;4957658;28;20043;-68
2021/01/12 03:25:56;;;;;;;3.42;2.08;;;3.80;99.90;;;;;;4959518;28;20624;-68
2021/01/12 03:28:23;;;;;;;5.15;2.20;;;3.80;99.90;;;;;;4962972;28;20074;-69
2021/01/12 03:30:49;;;;;;;4.40;2.10;;;3.80;99.90;;;;;;4964047;28;20047;-69
2021/01/12 03:33:15;;;;;;;3.72;1.95;;;3.80;99.90;;;;;;4962456;28;20098;-67
2021/01/12 03:35:42;;;;;;;3.42;2.28;;;3.80;99.90;;;;;;4963803;28;20689;-68
2021/01/12 03:38:08;;;;;;;4.30;1.85;;;3.80;99.90;;;;;;4963012;28;20066;-67
2021/01/12 03:40:35;;;;;;;2.10;1.60;;;3.80;99.90;;;;;;4963775;28;20057;-67
2021/01/12 03:43:01;;;;;;;3.80;1.55;;;3.70;99.90;;;;;;4969940;28;20074;-67
2021/01/12 03:45:28;;;;;;;10.73;2.22;;;3.70;99.90;;;;;;4962348;28;20085;-67
2021/01/12 03:47:55;;;;;;;2.30;1.92;;;3.70;99.90;;;;;;4963464;28;20062;-68
2021/01/12 03:50:25;;;;;;;6.30;2.10;;;3.70;99.90;;;;;;4963846;28;20471;-68
2021/01/12 03:52:54;;;;;;;7.07;1.75;;;3.70;99.90;;;;;;4962480;28;20058;-68
2021/01/12 03:55:21;;;;;;;4.43;2.13;;;3.70;99.90;;;;;;4959230;28;20051;-67
2021/01/12 03:57:48;;;;;;;2.30;1.35;;;3.70;99.90;;;;;;4963489;28;20051;-67
2021/01/12 04:00:15;;;;;;;2.22;1.42;;;3.70;99.90;;;;;;4963957;28;20047;-67
2021/01/12 04:02:42;;;;;;;5.82;2.20;;;3.70;99.90;;;;;;4962203;28;20059;-68
2021/01/12 04:05:09;;;;;;;4.68;1.60;;;3.70;99.90;;;;;;4963934;28;20054;-67
2021/01/12 04:07:37;;;;;;;3.35;1.35;;;3.70;99.90;;;;;;4960039;28;20055;-68
2021/01/12 04:10:04;;;;;;;6.70;1.77;;;3.60;99.90;;;;;;4962621;28;20050;-67
2021/01/12 04:12:32;;;;;;;5.90;1.33;;;3.60;99.90;;;;;;4964258;28;20150;-67
2021/01/12 04:14:59;;;;;;;4.57;2.17;;;3.60;99.90;;;;;;4963145;28;20478;-67
2021/01/12 04:17:25;;;;;;;3.15;1.35;;;3.60;99.90;;;;;;4961876;28;20653;-69
2021/01/12 04:19:52;;;;;;;2.72;1.88;;;3.60;99.90;;;;;;4963791;28;20353;-70
2021/01/12 04:22:18;;;;;;;2.97;1.30;;;3.60;99.90;;;;;;4962950;28;20538;-68
2021/01/12 04:24:45;;;;;;;5.57;1.98;;;3.60;99.90;;;;;;4964045;28;20587;-68
2021/01/12 04:27:11;;;;;;;5.93;2.70;;;3.60;99.90;;;;;;4961846;28;20109;-67
2021/01/12 04:29:38;;;;;;;5.38;1.85;;;3.60;99.90;;;;;;4963572;28;20075;-67
2021/01/12 04:32:04;;;;;;;4.50;1.73;;;3.60;99.90;;;;;;4962439;28;20094;-67
2021/01/12 04:34:32;;;;;;;6.38;2.42;;;3.60;99.90;;;;;;4962151;28;20057;-68
2021/01/12 04:36:58;;;;;;;5.40;1.63;;;3.60;99.90;;;;;;4963022;28;20387;-69
2021/01/12 04:39:28;;;;;;;2.93;1.37;;;3.60;99.90;;;;;;4961157;28;20222;-67
2021/01/12 04:41:54;;;;;;;3.35;1.50;;;3.60;99.90;;;;;;4963414;28;20046;-69
2021/01/12 04:44:21;;;;;;;4.22;1.67;;;3.60;99.90;;;;;;4962646;28;20081;-67
2021/01/12 04:46:47;;;;;;;5.72;1.48;;;3.70;99.90;;;;;;4963716;28;20050;-69
2021/01/12 04:49:14;;;;;;;4.18;2.20;;;3.60;99.90;;;;;;4960989;28;20610;-68
2021/01/12 04:51:41;;;;;;;2.35;1.13;;;3.60;99.90;;;;;;4959859;28;20050;-67
2021/01/12 04:54:08;;;;;;;4.53;1.42;;;3.60;99.90;;;;;;4962887;28;20050;-68
2021/01/12 04:56:34;;;;;;;2.92;1.25;;;3.70;99.90;;;;;;4961202;28;20050;-67
2021/01/12 04:59:00;;;;;;;2.63;1.33;;;3.60;99.90;;;;;;4963735;28;20046;-67
2021/01/12 05:01:29;;;;;;;3.53;1.70;;;3.70;99.90;;;;;;4960105;28;20051;-67
2021/01/12 05:03:56;;;;;;;3.92;1.55;;;3.60;99.90;;;;;;4959681;28;20173;-67
2021/01/12 05:06:25;;;;;;;1.25;1.05;;;3.60;99.90;;;;;;4961154;28;20165;-68
2021/01/12 05:08:56;;;;;;;9.13;2.03;;;3.60;99.90;;;;;;4966787;28;20052;-69
2021/01/12 05:11:30;;;;;;;6.32;1.38;;;3.60;99.90;;;;;;4962058;28;20132;-68
2021/01/12 05:14:05;;;;;;;2.97;1.50;;;3.50;99.90;;;;;;4964972;28;20047;-67
2021/01/12 05:16:57;;;;;;;3.83;1.08;;;3.50;99.90;;;;;;4968830;28;20156;-68
2021/01/12 05:19:29;;;;;;;4.03;0.70;;;3.50;99.90;;;;;;4966471;28;20149;-69
2021/01/12 05:22:02;;;;;;;2.80;1.10;;;3.40;99.90;;;;;;4967500;28;20444;-68
2021/01/12 05:24:31;;;;;;;5.28;1.02;;;3.50;99.90;;;;;;4967619;28;20483;-67
2021/01/12 05:27:05;;;;;;;2.53;1.23;;;3.50;99.90;;;;;;4967977;28;20066;-69
2021/01/12 05:29:37;;;;;;;3.05;0.95;;;3.50;99.90;;;;;;4963752;28;20462;-68
2021/01/12 05:32:15;;;;;;;1.42;0.68;;;3.40;99.90;;;;;;4966061;28;20176;-66
2021/01/12 05:34:43;;;;;;;11.35;1.40;;;3.40;99.90;;;;;;4963848;28;20054;-67
2021/01/12 05:37:10;;;;;;;1.65;0.82;;;3.40;99.90;;;;;;4964692;28;20169;-69
2021/01/12 05:39:41;;;;;;;4.15;1.20;;;3.40;99.90;;;;;;4965191;28;20589;-68
2021/01/12 05:42:10;;;;;;;6.60;0.88;;;3.40;99.90;;;;;;4965596;28;20406;-67
2021/01/12 05:44:39;;;;;;;2.92;0.90;;;3.40;99.90;;;;;;4965644;28;20043;-68
2021/01/12 05:47:06;;;;;;;5.78;0.73;;;3.40;99.90;;;;;;4965032;28;20047;-67
2021/01/12 05:49:33;;;;;;;1.15;0.45;;;3.30;99.90;;;;;;4964529;28;20049;-67
2021/01/12 05:51:59;;;;;;;3.60;1.40;;;3.30;99.90;;;;;;4966373;28;20181;-71
2021/01/12 05:54:38;;;;;;;0.95;0.75;;;3.30;99.90;;;;;;4965617;28;20043;-68
2021/01/12 05:57:07;;;;;;;5.72;1.50;;;3.30;99.90;;;;;;4961924;28;20051;-67
2021/01/12 05:59:36;;;;;;;3.45;1.15;;;3.20;99.90;;;;;;4961468;28;20109;-67
2021/01/12 06:02:10;;;;;;;2.13;0.73;;;3.20;99.90;;;;;;4961654;28;20054;-67
2021/01/12 06:04:37;;;;;;;4.13;0.50;;;3.20;99.90;;;;;;4964652;28;20050;-66
2021/01/12 06:07:04;;;;;;;5.05;1.25;;;3.10;99.90;;;;;;4966168;28;20511;-70
2021/01/12 06:09:32;;;;;;;1.63;0.90;;;3.10;99.90;;;;;;4964475;28;20121;-67
2021/01/12 06:11:58;;;;;;;2.13;0.40;;;3.10;99.90;;;;;;4964376;28;20050;-67
2021/01/12 06:14:27;;;;;;;4.20;0.80;;;3.10;99.90;;;;;;4963277;28;20055;-67
2021/01/12 06:16:55;;;;;;;2.47;0.70;;;3.10;99.90;;;;;;4962310;28;20078;-68
2021/01/12 06:19:26;;;;;;;3.80;0.40;;;3.10;99.90;;;;;;4961549;28;20054;-67
2021/01/12 06:21:56;;;;;;;5.78;1.10;;;3.10;99.90;;;;;;4964404;28;20360;-68
2021/01/12 06:24:37;;;;;;;1.47;0.50;;;3.10;99.90;;;;;;4962731;28;20055;-67
2021/01/12 06:27:11;;;;;;;1.63;0.57;;;3.20;99.90;;;;;;4966304;28;20038;-66
2021/01/12 06:29:45;;;;;;;2.35;1.30;;;3.10;99.90;;;;;;4961913;28;20051;-70
2021/01/12 06:32:22;;;;;;;1.00;0.70;;;3.20;99.90;;;;;;4959413;28;20656;-67
2021/01/12 06:34:50;;;;;;;2.92;0.80;;;3.20;99.90;;;;;;4962610;28;20698;-67
2021/01/12 06:37:18;;;;;;;1.00;0.63;;;3.20;99.90;;;;;;4960427;28;20128;-67
2021/01/12 06:39:47;;;;;;;2.83;0.73;;;3.20;99.90;;;;;;4964380;28;20062;-66
2021/01/12 06:42:19;;;;;;;2.00;0.47;;;3.20;99.90;;;;;;4961679;28;20051;-70
2021/01/12 06:44:51;;;;;;;5.85;1.25;;;3.20;99.90;;;;;;4962704;28;20457;-68
2021/01/12 06:47:27;;;;;;;2.22;0.75;;;3.20;99.90;;;;;;4961614;28;20149;-68
2021/01/12 06:50:08;;;;;;;1.17;0.47;;;3.10;99.90;;;;;;4959778;28;20542;-67
2021/01/12 06:52:38;;;;;;;5.97;0.57;;;2.90;99.90;;;;;;4956891;28;20054;-67
2021/01/12 06:55:09;;;;;;;0.45;0.10;;;2.80;99.90;;;;;;4963307;28;20046;-67
2021/01/12 06:57:37;;;;;;;0.90;0.60;;;2.80;99.90;;;;;;4960455;28;20398;-73
2021/01/12 07:00:08;;;;;;;6.85;0.80;;;2.70;99.90;;;;;;4950187;28;20102;-69
2021/01/12 07:02:35;;;;;;;0.52;0.20;;;2.50;99.90;;;;;;4957398;28;20186;-69
2021/01/12 07:05:05;;;;;;;0.22;0.10;;;2.20;99.90;;;;;;4959965;28;20042;-70
2021/01/12 07:07:52;;;;;;;0.77;0.30;;;2.00;99.90;;;;;;4960121;28;20093;-70
2021/01/12 07:10:25;;;;;;;1.95;0.30;;;1.90;99.90;;;;;;4957725;28;20378;-73
2021/01/12 07:12:52;;;;;;;1.88;0.20;;;1.80;99.90;;;;;;4960388;28;20042;-68
2021/01/12 07:15:21;;;;;;;0.55;0.22;;;1.80;99.90;;;;;;4957023;28;20201;-68
2021/01/12 07:17:50;;;;;;;0.82;0.50;;;1.80;99.90;;;;;;4959637;28;20403;-70
2021/01/12 07:20:18;;;;;;;4.75;0.47;;;1.70;99.90;;;;;;4965596;28;20047;-73
2021/01/12 07:23:09;;;;;;;2.83;0.10;;;1.70;99.90;;;;;;4963227;28;20051;-68
2021/01/12 07:25:41;;;;;;;0.40;0.40;;;1.60;99.90;;;;;;4964267;28;20051;-70
2021/01/12 07:28:09;;;;;;;16.88;0.57;;;1.50;99.90;;;;;;4963957;28;20137;-71
2021/01/12 07:30:40;;;;;;;0.28;0.20;;;1.50;99.90;;;;;;4960860;28;20094;-70
2021/01/12 07:33:30;;;;;;;0.40;0.10;;;1.40;99.90;;;;;;4956303;28;20153;-72
2021/01/12 07:35:58;;;;;;;3.15;0.20;;;1.30;99.90;;;;;;4963752;28;20054;-71
2021/01/12 07:38:30;;;;;;;0.25;0.10;;;1.30;99.90;;;;;;4965678;28;20565;-69
2021/01/12 07:40:58;;;;;;;0.63;0.20;;;1.40;99.90;;;;;;4958799;28;20154;-69
2021/01/12 07:43:26;;;;;;;1.20;0.20;;;1.40;99.90;;;;;;4965962;28;20085;-69
2021/01/12 07:46:01;;;;;;;0.13;0.10;;;1.40;99.90;;;;;;4962563;28;20463;-72
2021/01/12 07:48:29;;;;;;;1.05;0.20;;;1.40;99.90;;;;;;4959122;28;20474;-71
2021/01/12 07:51:00;;;;;;;0.43;0.10;;;1.40;99.90;;;;;;4964749;28;20054;-70
2021/01/12 07:53:33;;;;;;;2.20;0.47;;;1.40;99.90;;;;;;4959483;28;20526;-71
2021/01/12 07:56:01;;;;;;;6.28;0.65;;;1.40;99.90;;;;;;4958255;28;20134;-71
2021/01/12 07:58:29;;;;;;;3.40;0.20;;;1.40;99.90;;;;;;4961347;28;20121;-73
2021/01/12 08:00:56;;;;;;;0.20;0.20;;;1.40;99.90;;;;;;4962152;28;20065;-74
2021/01/12 08:03:35;;;;;;;1.95;0.20;;;1.40;99.90;;;;;;4959191;28;20058;-69
2021/01/12 08:06:04;;;;;;;0.85;0.28;;;1.50;99.90;;;;;;4961023;28;20059;-72
2021/01/12 08:08:30;;;;;;;0.82;0.20;;;1.60;99.90;;;;;;4966857;28;20157;-71
2021/01/12 08:10:57;;;;;;;0.35;0.20;;;1.70;99.90;;;;;;4968224;28;20058;-71
2021/01/12 08:13:23;;;;;;;0.30;0.00;;;1.90;99.90;;;;;;4965055;28;20050;-72
2021/01/12 08:15:50;;;;;;;0.43;0.10;;;1.90;99.90;;;;;;4962488;28;20094;-69
2021/01/12 08:18:21;;;;;;;0.63;0.28;;;2.00;99.90;;;;;;4960605;28;20059;-71
2021/01/12 08:21:13;;;;;;;0.65;0.28;;;2.00;99.90;;;;;;4960636;28;20982;-71
2021/01/12 08:23:39;;;;;;;0.60;0.50;;;2.00;99.90;;;;;;4962304;28;20522;-70
2021/01/12 08:26:10;;;;;;;0.35;0.10;;;2.00;99.90;;;;;;4960207;28;20100;-69
2021/01/12 08:28:36;;;;;;;0.90;0.10;;;2.00;99.90;;;;;;4955318;28;20607;-70
2021/01/12 08:31:03;;;;;;;1.85;0.30;;;1.90;99.90;;;;;;4959591;28;20586;-68
2021/01/12 08:33:38;;;;;;;1.38;0.30;;;1.90;99.90;;;;;;4958261;28;22247;-69
2021/01/12 08:36:20;;;;;;;0.38;0.30;;;1.90;99.90;;;;;;4957246;28;20047;-68
2021/01/12 08:38:49;;;;;;;0.50;0.30;;;1.90;99.90;;;;;;4963064;28;20069;-71
2021/01/12 08:41:17;;;;;;;1.92;0.47;;;1.90;99.90;;;;;;4960661;28;20452;-68
2021/01/12 08:43:45;;;;;;;0.30;0.30;;;1.90;99.90;;;;;;4959072;28;20046;-69
2021/01/12 08:46:12;;;;;;;0.20;0.17;;;1.90;99.90;;;;;;4960843;28;20100;-70
2021/01/12 08:48:48;;;;;;;0.30;0.20;;;1.90;99.90;;;;;;4962415;28;20050;-69
2021/01/12 08:51:18;;;;;;;1.38;0.55;;;1.80;99.90;;;;;;4958797;28;20068;-70
2021/01/12 08:53:52;;;;;;;1.55;0.25;;;1.80;99.90;;;;;;4958406;28;20451;-69
2021/01/12 08:56:21;;;;;;;1.13;0.10;;;1.80;99.90;;;;;;4957876;28;20043;-70
2021/01/12 08:58:48;;;;;;;0.28;0.10;;;1.70;99.90;;;;;;4958693;28;20050;-68
2021/01/12 09:01:25;;;;;;;0.20;0.20;;;1.70;99.90;;;;;;4958908;28;20074;-70
2021/01/12 09:04:04;;;;;;;1.45;0.10;;;1.60;99.90;;;;;;4954143;28;20047;-71
2021/01/12 09:06:31;;;;;;;0.25;0.20;;;1.60;99.90;;;;;;4955833;28;20054;-71
2021/01/12 09:09:15;;;;;;;0.43;0.20;;;1.50;99.90;;;;;;4958332;28;20724;-70
2021/01/12 09:11:47;;;;;;;0.45;0.25;;;1.50;99.90;;;;;;4957263;28;20051;-69
2021/01/12 09:14:14;;;;;;;0.40;0.20;;;1.50;99.90;;;;;;4958004;28;20050;-70
2021/01/12 09:16:42;;;;;;;0.47;0.22;;;1.40;99.90;;;;;;4958815;28;20859;-70
2021/01/12 09:19:16;;;;;;;0.52;0.32;;;1.40;99.90;;;;;;4957751;28;20058;-68
2021/01/12 09:21:44;;;;;;;1.15;0.30;;;1.40;99.90;;;;;;4959128;28;20046;-74
2021/01/12 09:24:18;;;;;;;0.35;0.20;;;1.40;99.90;;;;;;4957933;28;20082;-70
2021/01/12 09:26:45;;;;;;;1.35;0.30;;;1.40;99.90;;;;;;4960953;28;20126;-69
2021/01/12 09:29:12;;;;;;;0.88;0.32;;;1.30;99.90;;;;;;4961955;28;20539;-69
2021/01/12 09:31:46;;;;;;;3.88;0.50;;;1.30;99.90;;;;;;4961217;28;20123;-68
2021/01/12 09:34:20;;;;;;;1.17;0.30;;;1.20;99.90;;;;;;4954247;28;20069;-69
2021/01/12 09:36:47;;;;;;;2.47;0.40;;;1.20;99.90;;;;;;4962406;28;20453;-70
2021/01/12 09:39:14;;;;;;;2.55;0.45;;;1.20;99.90;;;;;;4959306;28;20137;-68
2021/01/12 09:41:41;;;;;;;0.28;0.10;;;1.20;99.90;;;;;;4959398;28;20209;-73
2021/01/12 09:44:08;;;;;;;0.98;0.28;;;1.20;99.90;;;;;;4961276;28;20878;-71
2021/01/12 09:46:36;;;;;;;1.00;0.20;;;1.20;99.90;;;;;;4962254;28;20078;-70
2021/01/12 09:49:03;;;;;;;1.67;1.10;;;1.20;99.90;;;;;;4960667;28;20566;-71
2021/01/12 09:51:30;;;;;;;0.50;0.38;;;1.20;99.90;;;;;;4958137;28;20188;-70
2021/01/12 09:53:56;;;;;;;0.20;0.17;;;1.20;99.90;;;;;;4958691;28;20042;-71
2021/01/12 09:56:23;;;;;;;1.13;0.35;;;1.20;99.90;;;;;;4961661;28;20482;-69
2021/01/12 09:58:51;;;;;;;0.50;0.20;;;1.20;99.90;;;;;;4964380;28;20090;-67
2021/01/12 10:01:19;;;;;;;0.20;0.20;;;1.20;99.90;;;;;;4965246;28;20074;-68
2021/01/12 10:03:47;;;;;;;0.43;0.20;;;1.30;99.90;;;;;;4963693;28;20063;-71
2021/01/12 10:06:23;;;;;;;0.43;0.40;;;1.30;99.90;;;;;;4966564;28;20745;-68
2021/01/12 10:08:50;;;;;;;1.52;0.32;;;1.30;99.90;;;;;;4964446;28;20093;-70
2021/01/12 10:11:16;;;;;;;0.35;0.35;;;1.20;99.90;;;;;;4962507;28;20058;-67
2021/01/12 10:13:46;;;;;;;0.73;0.38;;;1.20;99.90;;;;;;4966832;28;20403;-70
2021/01/12 10:16:23;;;;;;;1.27;0.20;;;1.20;99.90;;;;;;4969008;28;20051;-69
2021/01/12 10:18:50;;;;;;;2.15;0.30;;;1.20;99.90;;;;;;4962477;28;20456;-70
2021/01/12 10:21:18;;;;;;;3.15;0.30;;;1.20;99.90;;;;;;4963638;28;20070;-72
2021/01/12 10:23:45;;;;;;;4.85;0.85;;;1.20;99.90;;;;;;4967463;28;20395;-70
2021/01/12 10:26:14;;;;;;;1.67;0.40;;;1.20;99.90;;;;;;4966248;28;20051;-70
2021/01/12 10:28:41;;;;;;;0.20;0.00;;;1.20;99.90;;;;;;4965022;28;20464;-67
2021/01/12 10:31:13;;;;;;;0.88;0.40;;;1.10;99.90;;;;;;4958806;28;20050;-70
2021/01/12 10:33:43;;;;;;;0.45;0.20;;;1.10;99.90;;;;;;4963961;28;20456;-67
2021/01/12 10:36:17;;;;;;;0.60;0.20;;;1.10;99.90;;;;;;4959847;28;20047;-67
2021/01/12 10:38:45;;;;;;;4.50;0.40;;;1.10;99.90;;;;;;4963351;28;20046;-69
2021/01/12 10:41:12;;;;;;;0.70;0.40;;;1.10;99.90;;;;;;4963523;28;20059;-67
2021/01/12 10:43:38;;;;;;;2.85;0.40;;;1.10;99.90;;;;;;4959176;28;20473;-72
2021/01/12 10:46:05;;;;;;;1.17;0.50;;;1.00;99.90;;;;;;4959450;28;20067;-70
2021/01/12 10:48:32;;;;;;;0.93;0.45;;;1.00;99.90;;;;;;4963046;28;20154;-72
2021/01/12 10:50:58;;;;;;;1.77;0.17;;;1.00;99.90;;;;;;4965951;28;20061;-71
2021/01/12 10:53:25;;;;;;;3.25;0.28;;;1.00;99.90;;;;;;4958089;28;20054;-67
2021/01/12 10:55:52;;;;;;;1.08;0.57;;;1.00;99.90;;;;;;4963590;28;20043;-71
2021/01/12 10:58:18;;;;;;;0.90;0.30;;;1.00;99.90;;;;;;4964716;28;20061;-70
2021/01/12 11:00:47;;;;;;;1.65;0.28;;;1.00;99.90;;;;;;4957348;28;20069;-67
2021/01/12 11:03:14;;;;;;;0.32;0.17;;;1.10;99.90;;;;;;4958324;28;20055;-67
2021/01/12 11:05:41;;;;;;;1.10;0.22;;;1.00;99.90;;;;;;4962469;28;20165;-70
2021/01/12 11:08:07;;;;;;;1.17;0.65;;;1.00;99.90;;;;;;4967439;28;20129;-69
2021/01/12 11:10:33;;;;;;;1.10;0.20;;;1.00;99.90;;;;;;4962016;28;20158;-70
2021/01/12 11:13:01;;;;;;;5.15;0.57;;;0.90;99.90;;;;;;4964156;28;20050;-67
2021/01/12 11:15:29;;;;;;;2.63;0.38;;;1.00;99.90;;;;;;4962589;28;20053;-70
2021/01/12 11:17:56;;;;;;;0.85;0.40;;;1.00;99.90;;;;;;4964707;28;20043;-68
2021/01/12 11:20:23;;;;;;;0.47;0.30;;;1.00;99.90;;;;;;4964388;28;20073;-67
2021/01/12 11:22:49;;;;;;;0.82;0.50;;;1.00;99.90;;;;;;4962991;28;20439;-68
2021/01/12 11:25:16;;;;;;;1.83;0.30;;;1.00;99.90;;;;;;4962604;28;20065;-68
2021/01/12 11:27:43;;;;;;;0.73;0.40;;;1.00;99.90;;;;;;4963269;28;20059;-71
2021/01/12 11:30:35;;;;;;;1.80;0.30;;;1.00;99.90;;;;;;4967145;28;20073;-67
2021/01/12 11:33:05;;;;;;;1.52;0.38;;;1.00;99.90;;;;;;4959353;28;20058;-68
2021/01/12 11:35:32;;;;;;;0.40;0.20;;;1.00;99.90;;;;;;4965487;28;20090;-68
2021/01/12 11:37:58;;;;;;;2.22;0.30;;;1.00;99.90;;;;;;4962103;28;20046;-68
2021/01/12 11:40:25;;;;;;;0.45;0.20;;;1.00;99.90;;;;;;4966298;28;20134;-70
2021/01/12 11:42:52;;;;;;;0.73;0.30;;;1.00;99.90;;;;;;4962227;28;20039;-69
2021/01/12 11:45:18;;;;;;;0.90;0.40;;;1.00;99.90;;;;;;4960162;28;20157;-68
2021/01/12 11:47:45;;;;;;;0.85;0.57;;;1.00;99.90;;;;;;4963355;28;20186;-68
2021/01/12 11:50:12;;;;;;;2.50;0.20;;;1.00;99.90;;;;;;4966853;28;20071;-68
2021/01/12 11:52:39;;;;;;;0.88;0.22;;;1.00;99.90;;;;;;4964707;28;20046;-69
2021/01/12 11:55:06;;;;;;;0.13;0.10;;;1.00;99.90;;;;;;4960834;28;20054;-70
2021/01/12 11:57:33;;;;;;;0.85;0.35;;;1.00;99.90;;;;;;4961300;28;20062;-67
2021/01/12 11:59:59;;;;;;;1.85;0.13;;;1.10;99.90;;;;;;4963581;28;20117;-68
2021/01/12 12:02:26;;;;;;;0.10;0.10;;;1.00;99.90;;;;;;4960021;28;20158;-68
2021/01/12 12:04:53;;;;;;;2.80;0.40;;;1.00;99.90;;;;;;4960465;28;20126;-70
2021/01/12 12:07:19;;;;;;;1.58;0.10;;;1.00;99.90;;;;;;4957854;28;20062;-67
2021/01/12 12:09:46;;;;;;;0.30;0.22;;;1.10;99.90;;;;;;4960840;28;20047;-68
2021/01/12 12:12:12;;;;;;;0.05;0.05;;;1.10;99.90;;;;;;4956775;28;20079;-69
2021/01/12 12:14:39;;;;;;;0.10;0.10;;;1.10;99.90;;;;;;4962243;28;20058;-69
2021/01/12 12:17:06;;;;;;;0.20;0.10;;;1.10;99.90;;;;;;4957440;28;20126;-67
2021/01/12 12:19:33;;;;;;;2.33;0.30;;;1.10;99.90;;;;;;4960006;28;20566;-70
2021/01/12 12:21:59;;;;;;;0.22;0.15;;;1.10;99.90;;;;;;4964514;28;20074;-71
2021/01/12 12:24:28;;;;;;;0.15;0.10;;;1.20;99.90;;;;;;4962327;28;20428;-68
2021/01/12 12:26:59;;;;;;;0.75;0.22;;;1.10;99.90;;;;;;4968912;28;20070;-67
2021/01/12 12:29:27;;;;;;;0.22;0.10;;;1.20;99.90;;;;;;4957236;28;20061;-70
2021/01/12 12:31:55;;;;;;;0.22;0.20;;;1.10;99.90;;;;;;4960003;28;20444;-72
2021/01/12 12:34:23;;;;;;;0.30;0.13;;;1.10;99.90;;;;;;4959196;28;20054;-69
2021/01/12 12:36:50;;;;;;;0.60;0.35;;;1.10;99.90;;;;;;4960346;28;20050;-70
2021/01/12 12:39:17;;;;;;;0.65;0.52;;;1.10;99.90;;;;;;4958145;28;20054;-71
2021/01/12 12:41:44;;;;;;;0.55;0.32;;;1.10;99.90;;;;;;4963148;28;20074;-68
2021/01/12 12:44:10;;;;;;;1.02;0.30;;;1.10;99.90;;;;;;4960329;28;20295;-71
2021/01/12 12:46:37;;;;;;;0.70;0.20;;;1.10;99.90;;;;;;4960758;28;20076;-68
2021/01/12 12:49:04;;;;;;;0.68;0.40;;;1.10;99.90;;;;;;4960931;28;20071;-68
2021/01/12 12:51:30;;;;;;;1.35;0.20;;;1.10;99.90;;;;;;4960254;28;20071;-67
2021/01/12 12:53:58;;;;;;;0.70;0.30;;;1.10;99.90;;;;;;4961954;28;20831;-69
2021/01/12 12:56:25;;;;;;;0.77;0.20;;;1.10;99.90;;;;;;4961758;28;20074;-68
2021/01/12 12:58:52;;;;;;;0.70;0.20;;;1.10;99.90;;;;;;4961070;28;20059;-70
2021/01/12 13:01:19;;;;;;;1.85;0.10;;;1.10;99.90;;;;;;4959593;28;20050;-69
2021/01/12 13:03:46;;;;;;;0.95;0.30;;;1.10;99.90;;;;;;4960014;28;20061;-68
2021/01/12 13:06:13;;;;;;;0.82;0.30;;;1.10;99.90;;;;;;4961178;28;20125;-67